首页
METAR-TAF:

METAR-TAF

机场 :

Cortez, 科羅拉多州, 美国

纬度: 37-18-23N, 经度: 108-37-32W, 海拔: 1803米

当前天气观测

该预报发布于29分钟前的23:53 UTC
风速3节,风向西转西南
温度 6°C
湿度 75%
气压 1022 hPa
能見度: 16.1公里
少量云层高于7500英尺

METAR: KCEZ 072353Z AUTO 25003KT 10SM FEW075 06/02 A3019 RMK AO2 SLP217 T00610017 10106 20061 56006

时间: 17:22 (00:22 UTC)


TAF: 丢失

超过4000个机场的气象观测和天气预报(METAR&TAF报告)。

可查询的气象台以黄色和红色小点在地图上表示。

将鼠标移到小点上方,可查看气象台名称。

然后点击查看天气观测和预报。

如需切换地图:点击带黑十字的绿色按钮放大地图;点击带横线的绿色按钮缩小地图;或者点击绿色箭头查看邻近地区的地图。


METAR-TAF: